Share

Ornskoldsvik, Sweden

Ornskoldsvik (ESNO) Elev 328 ft | 63.41 °N, 18.98 °E | Change Station

Current weather conditions updated 18 minutes ago

Clear
Clear
46 °F
Feels Like 40 °F
N
15
Wind Variable Wind from South
Sunrise 5:09 AM
Sunset 8:20 PM
Moon Waning Gibbous

Today is forecast to be nearly the same temperature as yesterday. Showers tonight.

Pressure 29.50 in
Visibility -9999.0 miles
Clouds
Windchill 40 °F
Dew Point 36 °F
Humidity 66%
Rainfall 0.00 in
Snow Depth Not available.
UV Not available.
Pollen Not available.
Air Quality Not available.
Flu Activity Not available.
METAR ESNO 171120Z 18013KT CAVOK 08/02 Q0999

More Conditions Fewer Conditions

Pressure 29.50 in
Visibility -9999.0 miles
Clouds
Windchill 40 °F
Dew Point 36 °F
Humidity 66%
Rainfall 0.00 in
Snow Depth Not available.
UV Not available.
Pollen Not available.
Air Quality Not available.
Flu Activity Not available.
METAR ESNO 171120Z 18013KT CAVOK 08/02 Q0999

More Conditions Fewer Conditions

10-Day Forecast

Almanac

Astronomy

Apr. 17, 2014 Rise Set
Actual Time 5:09 AM CEST 8:20 PM CEST
Civil Twilight 4:15 AM CEST 9:14 PM CEST
Nautical Twilight 2:56 AM CEST 10:35 PM CEST
Astronomical Twilight 1:16 AM CEST 12:11 AM CEST
Moon 11:31 PM CEST 5:54 AM CEST
Length of Visible Light 16h 59m
Length of Day
15h 10m
Tomorrow will be 6m 22s longer.
Waning Gibbous, 95% of the Moon is Illuminated
Today
Waning Gibbous
Apr 22
Last Quarter
Apr 29
New
May 6
First Quarter
May 14
Full

Yesterday's Extremes

Country Highs Country Lows

Community

  • sunset from izmir, narlıdere
    sunset from izmir, narlıdere
  • Sunset over the Bay
    Sunset over the Bay
  • Sunrise Serenade
    Sunrise Serenade
  • symphony in blue....
    symphony in blue....
  • Dawn Surprise
    Dawn Surprise

WunderPhotos

Upload Photos

1,701,919 photos uploaded!

Nearby

Snow Depth

Not available.

Coastal Water Temperatures

Place Temperature
No Stations Reporting

Earthquake Activity

City Distance Mag. Time & Date
No recent earthquake activity has been reported nearby.
Minimum magnitude displayed is 2.5.

Nearby Weather Stations

Station Location Temp. Windchill Dew Point Humidity Wind Precip. Elev Updated Type
Ornskoldsvik, Sweden, �rnsk�ldsvik 46.9 °F 47 °F 36 °F 66% ESE  at  2.0 mph 0.00 in / hr 75 ft 1:38 PM CEST Rapid Fire
Ornskoldsvik 46.0 °F 41 °F 37 °F 70% NNE  at  10.7 mph 0.00 in / hr 236 ft 1:38 PM CEST Rapid Fire

Show More Stations Show Fewer Stations

What do you think?

We're not finished. Please let us know what you like, what you don't like, and what you are still missing.